sensor_id;sensor_type;location;lat;lon;timestamp;P1;durP1;ratioP1;P2;durP2;ratioP2
64225;SDS011;50545;56.064;26.178;2024-02-14T00:01:32;1.80;;;1.50;;
64225;SDS011;50545;56.064;26.178;2024-02-14T00:04:00;2.45;;;1.90;;
64225;SDS011;50545;56.064;26.178;2024-02-14T00:06:28;1.90;;;1.55;;
64225;SDS011;50545;56.064;26.178;2024-02-14T00:08:56;2.70;;;1.80;;
64225;SDS011;50545;56.064;26.178;2024-02-14T00:11:23;3.55;;;2.38;;
64225;SDS011;50545;56.064;26.178;2024-02-14T00:13:51;2.10;;;1.60;;
64225;SDS011;50545;56.064;26.178;2024-02-14T00:16:18;1.58;;;1.38;;
64225;SDS011;50545;56.064;26.178;2024-02-14T00:18:46;2.03;;;1.60;;
64225;SDS011;50545;56.064;26.178;2024-02-14T00:21:13;2.88;;;1.92;;
64225;SDS011;50545;56.064;26.178;2024-02-14T00:23:41;3.55;;;2.10;;
64225;SDS011;50545;56.064;26.178;2024-02-14T00:26:08;4.38;;;2.40;;
64225;SDS011;50545;56.064;26.178;2024-02-14T00:28:36;2.35;;;1.70;;
64225;SDS011;50545;56.064;26.178;2024-02-14T00:31:04;1.85;;;1.70;;
64225;SDS011;50545;56.064;26.178;2024-02-14T00:33:33;3.25;;;2.13;;
64225;SDS011;50545;56.064;26.178;2024-02-14T00:36:00;2.95;;;2.00;;
64225;SDS011;50545;56.064;26.178;2024-02-14T00:38:28;2.75;;;1.83;;
64225;SDS011;50545;56.064;26.178;2024-02-14T00:40:56;1.90;;;1.33;;
64225;SDS011;50545;56.064;26.178;2024-02-14T00:43:24;2.67;;;1.75;;
64225;SDS011;50545;56.064;26.178;2024-02-14T00:45:51;4.07;;;2.35;;
64225;SDS011;50545;56.064;26.178;2024-02-14T00:48:19;2.70;;;1.77;;
64225;SDS011;50545;56.064;26.178;2024-02-14T00:50:47;3.40;;;2.08;;
64225;SDS011;50545;56.064;26.178;2024-02-14T00:53:14;2.42;;;1.90;;
64225;SDS011;50545;56.064;26.178;2024-02-14T00:55:41;3.22;;;2.00;;
64225;SDS011;50545;56.064;26.178;2024-02-14T00:58:09;2.80;;;2.10;;
64225;SDS011;50545;56.064;26.178;2024-02-14T01:00:36;2.60;;;1.90;;
64225;SDS011;50545;56.064;26.178;2024-02-14T01:03:05;2.95;;;1.77;;
64225;SDS011;50545;56.064;26.178;2024-02-14T01:08:02;2.47;;;1.90;;
64225;SDS011;50545;56.064;26.178;2024-02-14T01:10:29;2.67;;;2.00;;
64225;SDS011;50545;56.064;26.178;2024-02-14T01:12:57;2.92;;;2.00;;
64225;SDS011;50545;56.064;26.178;2024-02-14T01:15:24;1.63;;;1.52;;
64225;SDS011;50545;56.064;26.178;2024-02-14T01:17:52;2.75;;;1.88;;
64225;SDS011;50545;56.064;26.178;2024-02-14T01:20:19;3.58;;;1.90;;
64225;SDS011;50545;56.064;26.178;2024-02-14T01:22:47;3.75;;;1.92;;
64225;SDS011;50545;56.064;26.178;2024-02-14T01:25:14;2.63;;;1.90;;
64225;SDS011;50545;56.064;26.178;2024-02-14T01:27:42;3.83;;;2.30;;
64225;SDS011;50545;56.064;26.178;2024-02-14T01:30:10;4.13;;;2.50;;
64225;SDS011;50545;56.064;26.178;2024-02-14T01:32:38;2.75;;;2.00;;
64225;SDS011;50545;56.064;26.178;2024-02-14T01:35:06;2.80;;;1.98;;
64225;SDS011;50545;56.064;26.178;2024-02-14T01:37:34;1.90;;;1.55;;
64225;SDS011;50545;56.064;26.178;2024-02-14T01:40:02;4.20;;;2.22;;
64225;SDS011;50545;56.064;26.178;2024-02-14T01:42:30;3.05;;;2.00;;
64225;SDS011;50545;56.064;26.178;2024-02-14T01:44:57;3.40;;;2.20;;
64225;SDS011;50545;56.064;26.178;2024-02-14T01:47:25;3.30;;;1.90;;
64225;SDS011;50545;56.064;26.178;2024-02-14T01:49:52;3.15;;;2.08;;
64225;SDS011;50545;56.064;26.178;2024-02-14T01:52:20;3.88;;;2.40;;
64225;SDS011;50545;56.064;26.178;2024-02-14T01:54:48;2.70;;;2.10;;
64225;SDS011;50545;56.064;26.178;2024-02-14T01:57:16;2.50;;;2.00;;
64225;SDS011;50545;56.064;26.178;2024-02-14T01:59:44;3.17;;;2.20;;
64225;SDS011;50545;56.064;26.178;2024-02-14T02:02:12;3.78;;;1.95;;
64225;SDS011;50545;56.064;26.178;2024-02-14T02:04:40;3.17;;;2.10;;
64225;SDS011;50545;56.064;26.178;2024-02-14T02:07:07;5.25;;;2.40;;
64225;SDS011;50545;56.064;26.178;2024-02-14T02:09:35;2.58;;;1.98;;
64225;SDS011;50545;56.064;26.178;2024-02-14T02:12:02;3.33;;;2.13;;
64225;SDS011;50545;56.064;26.178;2024-02-14T02:14:34;4.00;;;2.25;;
64225;SDS011;50545;56.064;26.178;2024-02-14T02:17:02;5.13;;;2.35;;
64225;SDS011;50545;56.064;26.178;2024-02-14T02:19:34;2.95;;;2.03;;
64225;SDS011;50545;56.064;26.178;2024-02-14T02:22:03;3.58;;;2.22;;
64225;SDS011;50545;56.064;26.178;2024-02-14T02:24:31;3.67;;;2.22;;
64225;SDS011;50545;56.064;26.178;2024-02-14T02:26:59;4.35;;;2.40;;
64225;SDS011;50545;56.064;26.178;2024-02-14T02:29:26;4.45;;;2.58;;
64225;SDS011;50545;56.064;26.178;2024-02-14T02:31:54;4.88;;;2.50;;
64225;SDS011;50545;56.064;26.178;2024-02-14T02:34:21;4.80;;;2.67;;
64225;SDS011;50545;56.064;26.178;2024-02-14T02:36:49;3.28;;;2.00;;
64225;SDS011;50545;56.064;26.178;2024-02-14T02:39:17;4.47;;;2.70;;
64225;SDS011;50545;56.064;26.178;2024-02-14T02:41:45;3.78;;;2.63;;
64225;SDS011;50545;56.064;26.178;2024-02-14T02:44:14;5.38;;;2.92;;
64225;SDS011;50545;56.064;26.178;2024-02-14T02:46:42;5.80;;;2.90;;
64225;SDS011;50545;56.064;26.178;2024-02-14T02:49:12;4.30;;;2.58;;
64225;SDS011;50545;56.064;26.178;2024-02-14T02:51:41;3.72;;;2.60;;
64225;SDS011;50545;56.064;26.178;2024-02-14T02:54:08;5.18;;;2.50;;
64225;SDS011;50545;56.064;26.178;2024-02-14T02:56:37;4.35;;;2.33;;
64225;SDS011;50545;56.064;26.178;2024-02-14T02:59:07;3.35;;;2.13;;
64225;SDS011;50545;56.064;26.178;2024-02-14T03:01:35;2.83;;;2.00;;
64225;SDS011;50545;56.064;26.178;2024-02-14T03:04:03;3.17;;;2.20;;
64225;SDS011;50545;56.064;26.178;2024-02-14T03:06:31;4.80;;;2.13;;
64225;SDS011;50545;56.064;26.178;2024-02-14T03:08:59;2.55;;;2.03;;
64225;SDS011;50545;56.064;26.178;2024-02-14T03:11:27;3.50;;;2.30;;
64225;SDS011;50545;56.064;26.178;2024-02-14T03:13:54;2.85;;;2.05;;
64225;SDS011;50545;56.064;26.178;2024-02-14T03:16:22;4.13;;;2.30;;
64225;SDS011;50545;56.064;26.178;2024-02-14T03:18:50;3.72;;;2.40;;
64225;SDS011;50545;56.064;26.178;2024-02-14T03:21:20;4.07;;;1.98;;
64225;SDS011;50545;56.064;26.178;2024-02-14T03:23:49;4.97;;;2.72;;
64225;SDS011;50545;56.064;26.178;2024-02-14T03:26:16;5.30;;;2.10;;
64225;SDS011;50545;56.064;26.178;2024-02-14T03:28:44;3.45;;;2.10;;
64225;SDS011;50545;56.064;26.178;2024-02-14T03:31:11;4.25;;;2.45;;
64225;SDS011;50545;56.064;26.178;2024-02-14T03:33:42;4.18;;;2.63;;
64225;SDS011;50545;56.064;26.178;2024-02-14T03:36:12;2.83;;;1.90;;
64225;SDS011;50545;56.064;26.178;2024-02-14T03:38:39;5.97;;;2.83;;
64225;SDS011;50545;56.064;26.178;2024-02-14T03:41:08;2.97;;;2.08;;
64225;SDS011;50545;56.064;26.178;2024-02-14T03:43:35;3.50;;;2.20;;
64225;SDS011;50545;56.064;26.178;2024-02-14T03:46:03;2.85;;;1.83;;
64225;SDS011;50545;56.064;26.178;2024-02-14T03:48:31;3.95;;;2.20;;
64225;SDS011;50545;56.064;26.178;2024-02-14T03:50:59;4.18;;;2.20;;
64225;SDS011;50545;56.064;26.178;2024-02-14T03:53:27;5.22;;;2.58;;
64225;SDS011;50545;56.064;26.178;2024-02-14T03:55:54;5.75;;;2.85;;
64225;SDS011;50545;56.064;26.178;2024-02-14T03:58:22;4.65;;;2.60;;
64225;SDS011;50545;56.064;26.178;2024-02-14T04:00:50;5.35;;;3.33;;
64225;SDS011;50545;56.064;26.178;2024-02-14T04:03:19;4.75;;;2.55;;
64225;SDS011;50545;56.064;26.178;2024-02-14T04:05:46;5.25;;;2.70;;
64225;SDS011;50545;56.064;26.178;2024-02-14T04:08:14;3.58;;;2.38;;
64225;SDS011;50545;56.064;26.178;2024-02-14T04:10:42;3.00;;;2.10;;
64225;SDS011;50545;56.064;26.178;2024-02-14T04:13:10;2.65;;;1.92;;
64225;SDS011;50545;56.064;26.178;2024-02-14T04:15:38;2.70;;;1.83;;
64225;SDS011;50545;56.064;26.178;2024-02-14T04:18:05;2.70;;;2.20;;
64225;SDS011;50545;56.064;26.178;2024-02-14T04:20:34;3.65;;;2.00;;
64225;SDS011;50545;56.064;26.178;2024-02-14T04:23:02;3.30;;;2.10;;
64225;SDS011;50545;56.064;26.178;2024-02-14T04:25:32;4.60;;;2.50;;
64225;SDS011;50545;56.064;26.178;2024-02-14T04:28:00;3.15;;;2.10;;
64225;SDS011;50545;56.064;26.178;2024-02-14T04:30:30;4.18;;;2.40;;
64225;SDS011;50545;56.064;26.178;2024-02-14T04:32:57;4.63;;;2.92;;
64225;SDS011;50545;56.064;26.178;2024-02-14T04:35:25;2.50;;;2.03;;
64225;SDS011;50545;56.064;26.178;2024-02-14T04:37:53;3.75;;;1.90;;
64225;SDS011;50545;56.064;26.178;2024-02-14T04:40:20;3.78;;;2.33;;
64225;SDS011;50545;56.064;26.178;2024-02-14T04:42:48;2.67;;;1.90;;
64225;SDS011;50545;56.064;26.178;2024-02-14T04:45:15;3.80;;;2.28;;
64225;SDS011;50545;56.064;26.178;2024-02-14T04:47:43;4.13;;;2.42;;
64225;SDS011;50545;56.064;26.178;2024-02-14T04:50:11;4.10;;;2.40;;
64225;SDS011;50545;56.064;26.178;2024-02-14T04:52:40;3.05;;;2.28;;
64225;SDS011;50545;56.064;26.178;2024-02-14T04:55:08;4.18;;;2.60;;
64225;SDS011;50545;56.064;26.178;2024-02-14T04:57:35;2.88;;;2.10;;
64225;SDS011;50545;56.064;26.178;2024-02-14T05:00:04;2.60;;;2.10;;
64225;SDS011;50545;56.064;26.178;2024-02-14T05:02:32;3.00;;;2.17;;
64225;SDS011;50545;56.064;26.178;2024-02-14T05:05:00;7.05;;;2.70;;
64225;SDS011;50545;56.064;26.178;2024-02-14T05:07:28;2.70;;;1.95;;
64225;SDS011;50545;56.064;26.178;2024-02-14T05:09:56;3.45;;;2.40;;
64225;SDS011;50545;56.064;26.178;2024-02-14T05:12:23;2.92;;;2.20;;
64225;SDS011;50545;56.064;26.178;2024-02-14T05:14:51;2.88;;;2.20;;
64225;SDS011;50545;56.064;26.178;2024-02-14T05:17:18;2.78;;;2.10;;
64225;SDS011;50545;56.064;26.178;2024-02-14T05:19:46;3.38;;;2.15;;
64225;SDS011;50545;56.064;26.178;2024-02-14T05:22:13;4.07;;;2.30;;
64225;SDS011;50545;56.064;26.178;2024-02-14T05:24:41;3.28;;;2.22;;
64225;SDS011;50545;56.064;26.178;2024-02-14T05:27:08;3.80;;;2.33;;
64225;SDS011;50545;56.064;26.178;2024-02-14T05:29:36;2.40;;;1.85;;
64225;SDS011;50545;56.064;26.178;2024-02-14T05:32:03;2.80;;;1.98;;
64225;SDS011;50545;56.064;26.178;2024-02-14T05:34:31;1.90;;;1.70;;
64225;SDS011;50545;56.064;26.178;2024-02-14T05:36:59;3.28;;;2.05;;
64225;SDS011;50545;56.064;26.178;2024-02-14T05:39:27;2.33;;;2.08;;
64225;SDS011;50545;56.064;26.178;2024-02-14T05:41:54;2.55;;;1.70;;
64225;SDS011;50545;56.064;26.178;2024-02-14T05:44:22;2.30;;;1.90;;
64225;SDS011;50545;56.064;26.178;2024-02-14T05:46:49;2.40;;;1.90;;
64225;SDS011;50545;56.064;26.178;2024-02-14T05:49:17;2.05;;;1.77;;
64225;SDS011;50545;56.064;26.178;2024-02-14T05:51:44;2.72;;;1.77;;
64225;SDS011;50545;56.064;26.178;2024-02-14T05:54:12;2.40;;;1.60;;
64225;SDS011;50545;56.064;26.178;2024-02-14T05:56:39;1.60;;;1.33;;
64225;SDS011;50545;56.064;26.178;2024-02-14T05:59:07;1.35;;;1.10;;
64225;SDS011;50545;56.064;26.178;2024-02-14T06:01:34;0.90;;;0.90;;
64225;SDS011;50545;56.064;26.178;2024-02-14T06:04:02;1.33;;;1.23;;
64225;SDS011;50545;56.064;26.178;2024-02-14T06:06:30;1.00;;;1.00;;
64225;SDS011;50545;56.064;26.178;2024-02-14T06:08:57;1.05;;;0.95;;
64225;SDS011;50545;56.064;26.178;2024-02-14T06:11:25;0.75;;;0.75;;
64225;SDS011;50545;56.064;26.178;2024-02-14T06:13:52;1.33;;;1.20;;
64225;SDS011;50545;56.064;26.178;2024-02-14T06:16:20;2.97;;;1.60;;
64225;SDS011;50545;56.064;26.178;2024-02-14T06:18:47;1.08;;;0.93;;
64225;SDS011;50545;56.064;26.178;2024-02-14T06:21:15;1.80;;;1.23;;
64225;SDS011;50545;56.064;26.178;2024-02-14T06:23:43;1.10;;;0.90;;
64225;SDS011;50545;56.064;26.178;2024-02-14T06:26:13;1.10;;;1.00;;
64225;SDS011;50545;56.064;26.178;2024-02-14T06:28:41;1.08;;;1.00;;
64225;SDS011;50545;56.064;26.178;2024-02-14T06:31:08;0.70;;;0.70;;
64225;SDS011;50545;56.064;26.178;2024-02-14T06:33:36;0.88;;;0.88;;
64225;SDS011;50545;56.064;26.178;2024-02-14T06:36:04;1.00;;;0.98;;
64225;SDS011;50545;56.064;26.178;2024-02-14T06:38:31;1.00;;;0.90;;
64225;SDS011;50545;56.064;26.178;2024-02-14T06:40:59;1.25;;;1.15;;
64225;SDS011;50545;56.064;26.178;2024-02-14T06:43:27;1.08;;;0.82;;
64225;SDS011;50545;56.064;26.178;2024-02-14T06:45:55;1.20;;;0.90;;
64225;SDS011;50545;56.064;26.178;2024-02-14T06:48:23;1.05;;;1.00;;
64225;SDS011;50545;56.064;26.178;2024-02-14T06:50:51;1.17;;;1.08;;
64225;SDS011;50545;56.064;26.178;2024-02-14T06:53:19;1.20;;;1.10;;
64225;SDS011;50545;56.064;26.178;2024-02-14T06:55:46;2.55;;;1.58;;
64225;SDS011;50545;56.064;26.178;2024-02-14T06:58:14;1.80;;;1.33;;
64225;SDS011;50545;56.064;26.178;2024-02-14T07:00:41;1.63;;;1.35;;
64225;SDS011;50545;56.064;26.178;2024-02-14T07:03:09;2.78;;;1.75;;
64225;SDS011;50545;56.064;26.178;2024-02-14T07:05:36;2.20;;;1.73;;
64225;SDS011;50545;56.064;26.178;2024-02-14T07:08:04;2.85;;;1.63;;
64225;SDS011;50545;56.064;26.178;2024-02-14T07:10:32;3.33;;;1.85;;
64225;SDS011;50545;56.064;26.178;2024-02-14T07:12:59;4.30;;;1.83;;
64225;SDS011;50545;56.064;26.178;2024-02-14T07:15:27;2.17;;;1.60;;
64225;SDS011;50545;56.064;26.178;2024-02-14T07:17:55;3.63;;;1.95;;
64225;SDS011;50545;56.064;26.178;2024-02-14T07:20:24;3.22;;;1.77;;
64225;SDS011;50545;56.064;26.178;2024-02-14T07:25:23;1.90;;;1.40;;
64225;SDS011;50545;56.064;26.178;2024-02-14T07:27:51;1.33;;;1.15;;
64225;SDS011;50545;56.064;26.178;2024-02-14T07:30:19;1.20;;;1.10;;
64225;SDS011;50545;56.064;26.178;2024-02-14T07:32:46;1.58;;;1.40;;
64225;SDS011;50545;56.064;26.178;2024-02-14T07:35:14;1.05;;;1.00;;
64225;SDS011;50545;56.064;26.178;2024-02-14T07:37:41;2.10;;;1.50;;
64225;SDS011;50545;56.064;26.178;2024-02-14T07:40:10;1.65;;;1.55;;
64225;SDS011;50545;56.064;26.178;2024-02-14T07:42:40;1.83;;;1.25;;
64225;SDS011;50545;56.064;26.178;2024-02-14T07:45:08;2.05;;;1.35;;
64225;SDS011;50545;56.064;26.178;2024-02-14T07:47:37;2.50;;;1.50;;
64225;SDS011;50545;56.064;26.178;2024-02-14T07:50:07;1.70;;;1.35;;
64225;SDS011;50545;56.064;26.178;2024-02-14T07:52:36;2.80;;;1.50;;
64225;SDS011;50545;56.064;26.178;2024-02-14T07:55:03;4.10;;;2.13;;
64225;SDS011;50545;56.064;26.178;2024-02-14T07:57:31;3.67;;;2.25;;
64225;SDS011;50545;56.064;26.178;2024-02-14T07:59:59;4.47;;;2.90;;
64225;SDS011;50545;56.064;26.178;2024-02-14T08:02:26;3.92;;;2.40;;
64225;SDS011;50545;56.064;26.178;2024-02-14T08:04:54;2.72;;;1.65;;
64225;SDS011;50545;56.064;26.178;2024-02-14T08:07:21;1.40;;;1.30;;
64225;SDS011;50545;56.064;26.178;2024-02-14T08:09:49;1.60;;;1.35;;
64225;SDS011;50545;56.064;26.178;2024-02-14T08:12:16;1.85;;;1.40;;
64225;SDS011;50545;56.064;26.178;2024-02-14T08:14:44;2.47;;;1.58;;
64225;SDS011;50545;56.064;26.178;2024-02-14T08:17:11;1.55;;;1.35;;
64225;SDS011;50545;56.064;26.178;2024-02-14T08:19:39;1.17;;;1.00;;
64225;SDS011;50545;56.064;26.178;2024-02-14T08:22:07;2.25;;;1.73;;
64225;SDS011;50545;56.064;26.178;2024-02-14T08:24:34;2.40;;;1.73;;
64225;SDS011;50545;56.064;26.178;2024-02-14T08:27:04;2.28;;;1.50;;
64225;SDS011;50545;56.064;26.178;2024-02-14T08:29:33;1.85;;;1.60;;
64225;SDS011;50545;56.064;26.178;2024-02-14T08:32:01;2.17;;;1.35;;
64225;SDS011;50545;56.064;26.178;2024-02-14T08:34:29;1.45;;;1.23;;
64225;SDS011;50545;56.064;26.178;2024-02-14T08:36:57;2.30;;;1.33;;
64225;SDS011;50545;56.064;26.178;2024-02-14T08:39:25;1.17;;;0.90;;
64225;SDS011;50545;56.064;26.178;2024-02-14T08:41:53;3.67;;;1.70;;
64225;SDS011;50545;56.064;26.178;2024-02-14T08:44:20;1.83;;;1.23;;
64225;SDS011;50545;56.064;26.178;2024-02-14T08:46:48;1.35;;;1.05;;
64225;SDS011;50545;56.064;26.178;2024-02-14T08:49:16;1.10;;;1.02;;
64225;SDS011;50545;56.064;26.178;2024-02-14T08:51:43;2.17;;;1.80;;
64225;SDS011;50545;56.064;26.178;2024-02-14T08:54:12;2.22;;;1.88;;
64225;SDS011;50545;56.064;26.178;2024-02-14T08:56:42;1.48;;;1.38;;
64225;SDS011;50545;56.064;26.178;2024-02-14T08:59:10;2.00;;;1.60;;
64225;SDS011;50545;56.064;26.178;2024-02-14T09:01:38;2.25;;;1.70;;
64225;SDS011;50545;56.064;26.178;2024-02-14T09:04:05;2.28;;;1.65;;
64225;SDS011;50545;56.064;26.178;2024-02-14T09:06:33;2.65;;;2.00;;
64225;SDS011;50545;56.064;26.178;2024-02-14T09:09:01;1.80;;;1.60;;
64225;SDS011;50545;56.064;26.178;2024-02-14T09:11:28;2.42;;;1.67;;
64225;SDS011;50545;56.064;26.178;2024-02-14T09:13:56;2.95;;;1.42;;
64225;SDS011;50545;56.064;26.178;2024-02-14T09:16:28;1.25;;;1.15;;
64225;SDS011;50545;56.064;26.178;2024-02-14T09:18:56;3.50;;;1.70;;
64225;SDS011;50545;56.064;26.178;2024-02-14T09:21:24;2.50;;;1.63;;
64225;SDS011;50545;56.064;26.178;2024-02-14T09:23:52;3.75;;;1.65;;
64225;SDS011;50545;56.064;26.178;2024-02-14T09:26:19;2.80;;;1.98;;
64225;SDS011;50545;56.064;26.178;2024-02-14T09:28:47;3.03;;;1.98;;
64225;SDS011;50545;56.064;26.178;2024-02-14T09:31:18;3.92;;;1.73;;
64225;SDS011;50545;56.064;26.178;2024-02-14T09:33:49;2.80;;;2.00;;
64225;SDS011;50545;56.064;26.178;2024-02-14T09:38:46;1.83;;;1.65;;
64225;SDS011;50545;56.064;26.178;2024-02-14T09:41:49;3.53;;;1.88;;
64225;SDS011;50545;56.064;26.178;2024-02-14T09:44:10;3.97;;;1.98;;
64225;SDS011;50545;56.064;26.178;2024-02-14T09:46:37;2.75;;;1.80;;
64225;SDS011;50545;56.064;26.178;2024-02-14T09:49:05;4.53;;;2.55;;
64225;SDS011;50545;56.064;26.178;2024-02-14T09:51:33;4.13;;;2.22;;
64225;SDS011;50545;56.064;26.178;2024-02-14T09:54:02;4.43;;;2.20;;
64225;SDS011;50545;56.064;26.178;2024-02-14T09:56:30;3.65;;;2.45;;
64225;SDS011;50545;56.064;26.178;2024-02-14T09:58:59;3.15;;;1.77;;
64225;SDS011;50545;56.064;26.178;2024-02-14T10:01:29;2.33;;;1.58;;
64225;SDS011;50545;56.064;26.178;2024-02-14T10:03:57;2.33;;;1.70;;
64225;SDS011;50545;56.064;26.178;2024-02-14T10:06:24;1.70;;;1.42;;
64225;SDS011;50545;56.064;26.178;2024-02-14T10:08:52;2.25;;;1.52;;
64225;SDS011;50545;56.064;26.178;2024-02-14T10:11:30;2.17;;;1.52;;
64225;SDS011;50545;56.064;26.178;2024-02-14T10:13:59;3.22;;;1.77;;
64225;SDS011;50545;56.064;26.178;2024-02-14T10:16:31;2.95;;;1.70;;
64225;SDS011;50545;56.064;26.178;2024-02-14T10:18:59;3.00;;;1.98;;
64225;SDS011;50545;56.064;26.178;2024-02-14T10:21:27;2.78;;;1.85;;
64225;SDS011;50545;56.064;26.178;2024-02-14T10:23:58;2.60;;;1.75;;
64225;SDS011;50545;56.064;26.178;2024-02-14T10:26:30;2.03;;;1.83;;
64225;SDS011;50545;56.064;26.178;2024-02-14T10:28:59;3.58;;;1.83;;
64225;SDS011;50545;56.064;26.178;2024-02-14T10:31:26;2.45;;;1.40;;
64225;SDS011;50545;56.064;26.178;2024-02-14T10:33:54;3.97;;;1.60;;
64225;SDS011;50545;56.064;26.178;2024-02-14T10:36:26;1.95;;;1.30;;
64225;SDS011;50545;56.064;26.178;2024-02-14T10:38:53;1.65;;;1.38;;
64225;SDS011;50545;56.064;26.178;2024-02-14T10:41:22;1.58;;;1.15;;
64225;SDS011;50545;56.064;26.178;2024-02-14T10:43:49;2.42;;;1.35;;
64225;SDS011;50545;56.064;26.178;2024-02-14T10:46:20;2.42;;;1.73;;
64225;SDS011;50545;56.064;26.178;2024-02-14T10:48:53;1.88;;;1.38;;
64225;SDS011;50545;56.064;26.178;2024-02-14T10:51:25;1.40;;;1.30;;
64225;SDS011;50545;56.064;26.178;2024-02-14T10:54:10;1.92;;;1.23;;
64225;SDS011;50545;56.064;26.178;2024-02-14T10:56:39;1.15;;;1.02;;
64225;SDS011;50545;56.064;26.178;2024-02-14T10:59:09;1.77;;;1.38;;
64225;SDS011;50545;56.064;26.178;2024-02-14T11:01:42;3.03;;;1.58;;
64225;SDS011;50545;56.064;26.178;2024-02-14T11:04:10;2.33;;;1.40;;
64225;SDS011;50545;56.064;26.178;2024-02-14T11:06:45;1.95;;;1.20;;
64225;SDS011;50545;56.064;26.178;2024-02-14T11:09:14;2.15;;;1.45;;
64225;SDS011;50545;56.064;26.178;2024-02-14T11:11:42;3.42;;;1.52;;
64225;SDS011;50545;56.064;26.178;2024-02-14T11:14:14;1.70;;;1.42;;
64225;SDS011;50545;56.064;26.178;2024-02-14T11:16:44;2.33;;;1.48;;
64225;SDS011;50545;56.064;26.178;2024-02-14T11:19:13;2.72;;;1.48;;
64225;SDS011;50545;56.064;26.178;2024-02-14T11:21:45;2.30;;;1.50;;
64225;SDS011;50545;56.064;26.178;2024-02-14T11:24:14;2.22;;;1.60;;
64225;SDS011;50545;56.064;26.178;2024-02-14T11:26:46;1.77;;;1.42;;
64225;SDS011;50545;56.064;26.178;2024-02-14T11:29:16;1.60;;;1.30;;
64225;SDS011;50545;56.064;26.178;2024-02-14T11:31:56;1.80;;;1.23;;
64225;SDS011;50545;56.064;26.178;2024-02-14T11:34:29;1.92;;;1.40;;
64225;SDS011;50545;56.064;26.178;2024-02-14T11:37:04;2.92;;;1.45;;
64225;SDS011;50545;56.064;26.178;2024-02-14T11:39:34;2.13;;;1.73;;
64225;SDS011;50545;56.064;26.178;2024-02-14T11:42:02;1.40;;;1.25;;
64225;SDS011;50545;56.064;26.178;2024-02-14T11:44:29;2.05;;;1.17;;
64225;SDS011;50545;56.064;26.178;2024-02-14T11:46:57;1.42;;;1.13;;
64225;SDS011;50545;56.064;26.178;2024-02-14T11:49:24;1.27;;;1.17;;
64225;SDS011;50545;56.064;26.178;2024-02-14T11:51:52;2.05;;;1.30;;
64225;SDS011;50545;56.064;26.178;2024-02-14T11:54:20;1.98;;;1.38;;
64225;SDS011;50545;56.064;26.178;2024-02-14T11:56:48;1.80;;;1.40;;
64225;SDS011;50545;56.064;26.178;2024-02-14T11:59:16;1.45;;;1.17;;
64225;SDS011;50545;56.064;26.178;2024-02-14T12:04:15;5.13;;;1.60;;
64225;SDS011;50545;56.064;26.178;2024-02-14T12:06:44;3.03;;;1.70;;
64225;SDS011;50545;56.064;26.178;2024-02-14T12:09:11;1.92;;;1.50;;
64225;SDS011;50545;56.064;26.178;2024-02-14T12:11:40;1.38;;;1.23;;
64225;SDS011;50545;56.064;26.178;2024-02-14T12:14:13;2.17;;;1.15;;
64225;SDS011;50545;56.064;26.178;2024-02-14T12:16:41;1.30;;;1.15;;
64225;SDS011;50545;56.064;26.178;2024-02-14T12:19:10;2.13;;;1.35;;
64225;SDS011;50545;56.064;26.178;2024-02-14T12:21:43;1.73;;;1.38;;
64225;SDS011;50545;56.064;26.178;2024-02-14T12:24:11;3.20;;;1.40;;
64225;SDS011;50545;56.064;26.178;2024-02-14T12:26:42;1.77;;;1.45;;
64225;SDS011;50545;56.064;26.178;2024-02-14T12:29:13;1.50;;;1.00;;
64225;SDS011;50545;56.064;26.178;2024-02-14T12:31:40;1.60;;;1.27;;
64225;SDS011;50545;56.064;26.178;2024-02-14T12:34:10;1.45;;;1.15;;
64225;SDS011;50545;56.064;26.178;2024-02-14T12:36:39;2.40;;;1.13;;
64225;SDS011;50545;56.064;26.178;2024-02-14T12:39:07;1.13;;;1.02;;
64225;SDS011;50545;56.064;26.178;2024-02-14T12:41:36;2.30;;;1.63;;
64225;SDS011;50545;56.064;26.178;2024-02-14T12:44:07;1.63;;;1.30;;
64225;SDS011;50545;56.064;26.178;2024-02-14T12:46:35;1.77;;;1.20;;
64225;SDS011;50545;56.064;26.178;2024-02-14T12:49:05;3.25;;;1.50;;
64225;SDS011;50545;56.064;26.178;2024-02-14T12:51:33;1.98;;;1.45;;
64225;SDS011;50545;56.064;26.178;2024-02-14T12:54:03;0.95;;;0.95;;
64225;SDS011;50545;56.064;26.178;2024-02-14T12:56:31;1.00;;;0.90;;
64225;SDS011;50545;56.064;26.178;2024-02-14T12:58:58;1.67;;;1.13;;
64225;SDS011;50545;56.064;26.178;2024-02-14T13:01:28;3.25;;;1.33;;
64225;SDS011;50545;56.064;26.178;2024-02-14T13:03:56;1.98;;;1.27;;
64225;SDS011;50545;56.064;26.178;2024-02-14T13:06:24;0.90;;;0.90;;
64225;SDS011;50545;56.064;26.178;2024-02-14T13:08:53;1.23;;;1.10;;
64225;SDS011;50545;56.064;26.178;2024-02-14T13:11:22;1.80;;;1.15;;
64225;SDS011;50545;56.064;26.178;2024-02-14T13:13:50;1.88;;;1.30;;
64225;SDS011;50545;56.064;26.178;2024-02-14T13:16:17;1.63;;;1.15;;
64225;SDS011;50545;56.064;26.178;2024-02-14T13:18:45;1.38;;;1.17;;
64225;SDS011;50545;56.064;26.178;2024-02-14T13:21:13;0.90;;;0.90;;
64225;SDS011;50545;56.064;26.178;2024-02-14T13:23:40;1.70;;;1.20;;
64225;SDS011;50545;56.064;26.178;2024-02-14T13:26:08;1.15;;;1.05;;
64225;SDS011;50545;56.064;26.178;2024-02-14T13:28:35;1.35;;;1.10;;
64225;SDS011;50545;56.064;26.178;2024-02-14T13:31:03;1.27;;;1.08;;
64225;SDS011;50545;56.064;26.178;2024-02-14T13:33:30;1.58;;;0.90;;
64225;SDS011;50545;56.064;26.178;2024-02-14T13:35:58;0.85;;;0.85;;
64225;SDS011;50545;56.064;26.178;2024-02-14T13:38:26;1.92;;;1.23;;
64225;SDS011;50545;56.064;26.178;2024-02-14T13:40:53;2.45;;;0.82;;
64225;SDS011;50545;56.064;26.178;2024-02-14T13:43:21;2.35;;;1.30;;
64225;SDS011;50545;56.064;26.178;2024-02-14T13:45:48;1.10;;;0.85;;
64225;SDS011;50545;56.064;26.178;2024-02-14T13:48:17;3.10;;;1.30;;
64225;SDS011;50545;56.064;26.178;2024-02-14T13:50:44;1.17;;;0.95;;
64225;SDS011;50545;56.064;26.178;2024-02-14T13:53:12;1.48;;;1.17;;
64225;SDS011;50545;56.064;26.178;2024-02-14T13:55:39;2.50;;;1.48;;
64225;SDS011;50545;56.064;26.178;2024-02-14T13:58:07;3.17;;;1.65;;
64225;SDS011;50545;56.064;26.178;2024-02-14T14:00:41;2.88;;;1.42;;
64225;SDS011;50545;56.064;26.178;2024-02-14T14:03:09;1.80;;;1.38;;
64225;SDS011;50545;56.064;26.178;2024-02-14T14:05:37;1.88;;;1.15;;
64225;SDS011;50545;56.064;26.178;2024-02-14T14:08:05;2.60;;;1.83;;
64225;SDS011;50545;56.064;26.178;2024-02-14T14:10:32;5.70;;;2.85;;
64225;SDS011;50545;56.064;26.178;2024-02-14T14:13:00;2.88;;;1.90;;
64225;SDS011;50545;56.064;26.178;2024-02-14T14:15:27;2.83;;;1.85;;
64225;SDS011;50545;56.064;26.178;2024-02-14T14:17:56;2.35;;;1.38;;
64225;SDS011;50545;56.064;26.178;2024-02-14T14:20:24;1.75;;;1.40;;
64225;SDS011;50545;56.064;26.178;2024-02-14T14:22:52;2.13;;;1.67;;
64225;SDS011;50545;56.064;26.178;2024-02-14T14:25:19;1.73;;;1.38;;
64225;SDS011;50545;56.064;26.178;2024-02-14T14:27:47;3.55;;;1.80;;
64225;SDS011;50545;56.064;26.178;2024-02-14T14:30:14;2.42;;;1.80;;
64225;SDS011;50545;56.064;26.178;2024-02-14T14:32:42;2.17;;;1.73;;
64225;SDS011;50545;56.064;26.178;2024-02-14T14:35:09;3.25;;;1.80;;
64225;SDS011;50545;56.064;26.178;2024-02-14T14:37:38;2.00;;;1.38;;
64225;SDS011;50545;56.064;26.178;2024-02-14T14:40:06;1.85;;;1.40;;
64225;SDS011;50545;56.064;26.178;2024-02-14T14:42:36;1.77;;;1.37;;
64225;SDS011;50545;56.064;26.178;2024-02-14T14:45:05;1.92;;;1.65;;
64225;SDS011;50545;56.064;26.178;2024-02-14T14:47:34;2.13;;;1.58;;
64225;SDS011;50545;56.064;26.178;2024-02-14T14:50:02;2.60;;;1.60;;